Time;durP1;ratioP1;P1;durP2;ratioP2;P2;SDS_P1;SDS_P2;PMS_P1;PMS_P2;Temp;Humidity;BMP_temperature;BMP_pressure;BME280_temperature;BME280_humidity;BME280_pressure;Samples;Min_cycle;Max_cycle;Signal;HPM_P1;HPM_P2
2023/05/31 05:20:25;;;;;;;;;27.50;23.50;;;;;;;;5812440;22;24269;-73
2023/05/31 05:22:54;;;;;;;;;20.50;19.75;;;;;;;;6374444;22;11547;-72
2023/05/31 05:25:21;;;;;;;;;20.75;18.75;;;;;;;;6347249;22;8776;-70
2023/05/31 05:27:46;;;;;;;;;22.00;20.75;;;;;;;;6375540;22;11429;-71
2023/05/31 05:30:12;;;;;;;;;23.00;22.25;;;;;;;;6374879;22;11538;-70
2023/05/31 05:32:37;;;;;;;;;23.00;22.25;;;;;;;;6375061;22;9548;-70
2023/05/31 05:35:02;;;;;;;;;19.00;19.00;;;;;;;;6375858;22;8763;-69
2023/05/31 05:37:27;;;;;;;;;23.00;20.00;;;;;;;;6375241;22;8760;-70
2023/05/31 05:39:53;;;;;;;;;21.00;19.25;;;;;;;;6375716;22;8776;-71
2023/05/31 05:42:19;;;;;;;;;11.75;9.75;;;;;;;;6374374;22;8991;-70
2023/05/31 05:44:44;;;;;;;;;22.00;21.25;;;;;;;;6373899;22;8720;-71
2023/05/31 05:47:09;;;;;;;;;24.75;24.00;;;;;;;;6373935;22;12270;-73
2023/05/31 05:49:35;;;;;;;;;27.75;23.25;;;;;;;;6372304;22;8767;-67
2023/05/31 05:52:00;;;;;;;;;16.00;15.00;;;;;;;;6374259;22;8740;-70
2023/05/31 05:54:25;;;;;;;;;25.25;19.50;;;;;;;;6374238;22;8793;-69
2023/05/31 05:56:50;;;;;;;;;23.75;21.00;;;;;;;;6374729;22;8795;-68
2023/05/31 05:59:15;;;;;;;;;25.50;20.25;;;;;;;;6345963;22;8853;-70
2023/05/31 06:01:40;;;;;;;;;24.75;20.50;;;;;;;;6373820;22;8758;-69
2023/05/31 06:04:06;;;;;;;;;11.50;9.75;;;;;;;;6374205;22;8879;-69
2023/05/31 06:06:31;;;;;;;;;18.25;16.50;;;;;;;;6374454;22;9496;-67
2023/05/31 06:08:57;;;;;;;;;20.00;17.00;;;;;;;;6374290;22;10163;-68
2023/05/31 06:11:22;;;;;;;;;28.25;23.50;;;;;;;;6375520;22;8763;-71
2023/05/31 06:13:47;;;;;;;;;21.00;17.50;;;;;;;;6375919;22;8751;-67
2023/05/31 06:16:13;;;;;;;;;14.75;13.25;;;;;;;;6375680;22;8822;-67
2023/05/31 06:18:38;;;;;;;;;18.75;17.50;;;;;;;;6376024;22;8782;-66
2023/05/31 06:21:03;;;;;;;;;25.50;18.75;;;;;;;;6374962;22;8779;-67
2023/05/31 06:23:29;;;;;;;;;19.50;17.25;;;;;;;;6375267;22;8759;-67
2023/05/31 06:25:54;;;;;;;;;18.00;17.25;;;;;;;;6375013;22;9552;-67
2023/05/31 06:28:19;;;;;;;;;16.50;16.00;;;;;;;;6375352;22;8759;-68
2023/05/31 06:30:45;;;;;;;;;22.25;21.25;;;;;;;;6375773;22;8755;-66
2023/05/31 06:33:10;;;;;;;;;18.00;17.25;;;;;;;;6364154;22;8763;-66
2023/05/31 06:35:35;;;;;;;;;21.25;19.50;;;;;;;;6367035;22;8840;-65
2023/05/31 06:38:03;;;;;;;;;20.50;19.25;;;;;;;;6340822;22;8775;-67
2023/05/31 06:40:29;;;;;;;;;22.75;20.25;;;;;;;;6374979;22;8743;-67
2023/05/31 06:42:54;;;;;;;;;21.25;17.75;;;;;;;;6374760;22;11399;-67
2023/05/31 06:45:19;;;;;;;;;19.50;17.75;;;;;;;;6374512;22;8771;-67
2023/05/31 06:47:45;;;;;;;;;22.50;20.00;;;;;;;;6375177;22;8767;-67
2023/05/31 06:50:10;;;;;;;;;22.25;18.25;;;;;;;;6375177;22;8801;-69
2023/05/31 06:52:35;;;;;;;;;9.75;8.75;;;;;;;;6375214;22;8764;-68
2023/05/31 06:55:01;;;;;;;;;23.50;21.75;;;;;;;;6375468;22;8864;-67
2023/05/31 06:57:26;;;;;;;;;19.75;17.25;;;;;;;;6375260;22;8854;-67
2023/05/31 06:59:51;;;;;;;;;18.50;15.75;;;;;;;;6374662;22;8764;-68
2023/05/31 07:02:16;;;;;;;;;16.00;15.00;;;;;;;;6374016;22;9493;-67
2023/05/31 07:04:41;;;;;;;;;16.75;12.75;;;;;;;;6346752;22;8816;-68
2023/05/31 07:07:09;;;;;;;;;19.75;16.75;;;;;;;;6375282;22;8748;-67
2023/05/31 07:09:34;;;;;;;;;16.75;14.75;;;;;;;;6375303;22;8736;-67
2023/05/31 07:12:00;;;;;;;;;18.50;15.00;;;;;;;;6375525;22;11375;-67
2023/05/31 07:14:25;;;;;;;;;21.00;17.00;;;;;;;;6375300;22;8766;-67
2023/05/31 07:16:50;;;;;;;;;17.75;16.25;;;;;;;;6374687;22;12570;-67
2023/05/31 07:19:16;;;;;;;;;18.50;15.50;;;;;;;;6375371;22;9484;-67
2023/05/31 07:21:41;;;;;;;;;16.25;13.50;;;;;;;;6374272;22;8860;-68
2023/05/31 07:24:06;;;;;;;;;16.00;13.75;;;;;;;;6375077;22;8751;-67
2023/05/31 07:26:31;;;;;;;;;16.00;15.25;;;;;;;;6375020;22;8868;-67
2023/05/31 07:28:56;;;;;;;;;14.75;12.00;;;;;;;;6375190;22;9593;-67
2023/05/31 07:31:22;;;;;;;;;17.75;16.50;;;;;;;;6374777;22;8759;-67
2023/05/31 07:33:47;;;;;;;;;16.50;15.75;;;;;;;;6375381;22;8763;-67
2023/05/31 07:36:12;;;;;;;;;14.00;14.00;;;;;;;;6374852;22;8760;-68
2023/05/31 07:38:37;;;;;;;;;13.00;13.00;;;;;;;;6375138;22;8837;-67
2023/05/31 07:41:03;;;;;;;;;15.50;13.25;;;;;;;;6347275;22;8783;-67
2023/05/31 07:43:29;;;;;;;;;11.25;10.75;;;;;;;;6374992;22;8867;-67
2023/05/31 07:45:55;;;;;;;;;16.25;14.25;;;;;;;;6374490;22;8764;-66
2023/05/31 07:48:20;;;;;;;;;13.75;13.00;;;;;;;;6346433;22;11449;-67
2023/05/31 07:50:46;;;;;;;;;14.00;12.50;;;;;;;;6375028;22;8767;-67
2023/05/31 07:53:11;;;;;;;;;11.00;11.00;;;;;;;;6375283;22;8790;-67
2023/05/31 07:55:37;;;;;;;;;12.25;12.25;;;;;;;;6374716;22;8783;-67
2023/05/31 07:58:03;;;;;;;;;10.25;9.00;;;;;;;;6374782;22;8736;-67
2023/05/31 08:00:28;;;;;;;;;13.50;12.00;;;;;;;;6374664;22;8754;-67
2023/05/31 08:02:53;;;;;;;;;15.25;13.75;;;;;;;;6374252;22;9468;-67
2023/05/31 08:05:18;;;;;;;;;12.50;12.50;;;;;;;;6374960;22;9573;-67
2023/05/31 08:07:44;;;;;;;;;5.25;5.25;;;;;;;;6374896;22;8759;-67
2023/05/31 08:10:10;;;;;;;;;13.25;12.75;;;;;;;;6374979;22;8763;-67
2023/05/31 08:12:36;;;;;;;;;10.50;10.50;;;;;;;;6376322;22;9476;-67
2023/05/31 08:15:01;;;;;;;;;14.50;14.25;;;;;;;;6375331;22;11344;-67
2023/05/31 08:17:26;;;;;;;;;13.75;12.00;;;;;;;;6347986;22;9301;-67
2023/05/31 08:19:51;;;;;;;;;10.75;10.75;;;;;;;;6375839;22;8747;-66
2023/05/31 08:22:17;;;;;;;;;11.50;11.00;;;;;;;;6375551;22;8787;-67
2023/05/31 08:24:42;;;;;;;;;13.50;12.50;;;;;;;;6375652;22;8924;-67
2023/05/31 08:27:07;;;;;;;;;10.25;10.25;;;;;;;;6375711;22;8837;-67
2023/05/31 08:29:33;;;;;;;;;12.25;11.25;;;;;;;;6375173;22;8778;-67
2023/05/31 08:31:58;;;;;;;;;13.00;12.50;;;;;;;;6375621;22;8744;-67
2023/05/31 08:34:23;;;;;;;;;16.25;14.25;;;;;;;;6375515;22;8748;-67
2023/05/31 08:36:49;;;;;;;;;17.00;16.00;;;;;;;;6376016;22;8854;-67
2023/05/31 08:39:14;;;;;;;;;15.50;13.75;;;;;;;;6376253;22;8736;-67
2023/05/31 08:41:59;;;;;;;;;10.50;9.25;;;;;;;;6375308;22;8774;-67
2023/05/31 08:44:24;;;;;;;;;12.00;12.00;;;;;;;;6375247;22;8744;-67
2023/05/31 08:46:49;;;;;;;;;14.00;13.00;;;;;;;;6375349;22;11397;-67
2023/05/31 08:49:17;;;;;;;;;13.75;10.75;;;;;;;;6375952;22;8760;-67
2023/05/31 08:51:47;;;;;;;;;14.50;13.50;;;;;;;;6375130;22;8973;-66
2023/05/31 08:54:13;;;;;;;;;14.00;12.25;;;;;;;;6347507;22;11347;-67
2023/05/31 08:56:39;;;;;;;;;11.50;10.00;;;;;;;;6375813;22;11390;-67
2023/05/31 08:59:09;;;;;;;;;12.50;12.50;;;;;;;;6375605;22;8740;-67
2023/05/31 09:01:36;;;;;;;;;14.25;11.75;;;;;;;;6376012;22;8781;-67
2023/05/31 09:04:03;;;;;;;;;11.25;11.00;;;;;;;;6375611;22;11453;-68
2023/05/31 09:06:29;;;;;;;;;16.25;14.50;;;;;;;;6375716;22;11467;-68
2023/05/31 09:08:54;;;;;;;;;16.25;16.25;;;;;;;;6375743;22;11349;-67
2023/05/31 09:11:20;;;;;;;;;14.75;14.50;;;;;;;;6375981;22;11381;-67
2023/05/31 09:13:45;;;;;;;;;10.25;10.00;;;;;;;;6375433;22;8752;-67
2023/05/31 09:16:11;;;;;;;;;15.25;13.25;;;;;;;;6375293;22;8790;-67
2023/05/31 09:18:36;;;;;;;;;11.00;11.00;;;;;;;;6375475;22;8752;-67
2023/05/31 09:21:07;;;;;;;;;14.25;12.00;;;;;;;;6374763;22;8779;-68
2023/05/31 09:23:32;;;;;;;;;12.50;12.50;;;;;;;;6375107;22;8731;-67
2023/05/31 09:25:57;;;;;;;;;9.75;8.75;;;;;;;;6374428;22;11391;-67
2023/05/31 09:28:23;;;;;;;;;12.00;10.75;;;;;;;;6375203;22;9504;-67
2023/05/31 09:31:05;;;;;;;;;10.00;7.00;;;;;;;;6347623;22;8756;-67
2023/05/31 09:33:36;;;;;;;;;15.50;11.75;;;;;;;;6374862;22;8732;-67
2023/05/31 09:36:01;;;;;;;;;14.50;12.75;;;;;;;;6375168;22;11361;-67
2023/05/31 09:38:34;;;;;;;;;14.00;11.25;;;;;;;;6347051;22;11203;-68
2023/05/31 09:41:12;;;;;;;;;14.00;13.00;;;;;;;;6375899;22;9496;-68
2023/05/31 09:43:38;;;;;;;;;9.75;8.50;;;;;;;;6375592;22;11810;-68
2023/05/31 09:46:03;;;;;;;;;12.75;12.25;;;;;;;;6374509;22;11354;-69
2023/05/31 09:48:28;;;;;;;;;10.50;10.25;;;;;;;;6375692;22;8751;-68
2023/05/31 09:50:53;;;;;;;;;12.50;9.75;;;;;;;;6347118;22;9975;-68
2023/05/31 09:53:19;;;;;;;;;10.25;10.25;;;;;;;;6376014;22;8832;-68
2023/05/31 09:55:44;;;;;;;;;10.50;10.00;;;;;;;;6375212;22;8764;-68
2023/05/31 09:58:09;;;;;;;;;13.75;13.75;;;;;;;;6375533;22;8882;-67
2023/05/31 10:00:43;;;;;;;;;13.50;10.50;;;;;;;;6375695;22;8802;-67
2023/05/31 10:03:08;;;;;;;;;7.75;6.25;;;;;;;;6375872;22;8751;-67
2023/05/31 10:05:34;;;;;;;;;12.25;12.25;;;;;;;;6375146;22;11748;-71
2023/05/31 10:07:59;;;;;;;;;12.25;11.50;;;;;;;;6375916;22;8740;-72
2023/05/31 10:10:24;;;;;;;;;12.00;12.00;;;;;;;;6375634;22;8759;-70
2023/05/31 10:12:50;;;;;;;;;9.00;7.25;;;;;;;;6375137;22;8743;-67
2023/05/31 10:15:17;;;;;;;;;8.50;8.50;;;;;;;;6374388;22;8728;-68
2023/05/31 10:17:45;;;;;;;;;9.50;9.50;;;;;;;;6374463;22;11056;-73
2023/05/31 10:20:13;;;;;;;;;3.00;1.50;;;;;;;;6375334;22;11131;-67
2023/05/31 10:22:39;;;;;;;;;8.00;7.75;;;;;;;;6375494;22;11238;-68
2023/05/31 10:25:10;;;;;;;;;10.50;9.25;;;;;;;;6375378;22;10982;-69
2023/05/31 10:27:41;;;;;;;;;9.00;9.00;;;;;;;;6375388;22;10874;-67
2023/05/31 10:30:08;;;;;;;;;14.75;12.50;;;;;;;;6374176;22;11118;-68
2023/05/31 10:32:43;;;;;;;;;11.25;10.50;;;;;;;;6374013;22;11199;-68
2023/05/31 10:35:08;;;;;;;;;14.25;10.00;;;;;;;;6375036;22;11201;-68
2023/05/31 10:37:34;;;;;;;;;10.75;10.00;;;;;;;;6347217;22;10910;-68
2023/05/31 10:40:21;;;;;;;;;8.00;7.50;;;;;;;;6374663;22;8794;-67
2023/05/31 10:43:05;;;;;;;;;9.25;9.25;;;;;;;;6375079;22;8744;-67
2023/05/31 10:45:46;;;;;;;;;8.25;7.00;;;;;;;;6375191;22;11025;-67
2023/05/31 10:48:18;;;;;;;;;10.00;9.75;;;;;;;;6375370;22;10777;-67
2023/05/31 10:51:00;;;;;;;;;10.25;9.75;;;;;;;;6375429;22;11047;-71
2023/05/31 10:53:35;;;;;;;;;5.00;4.00;;;;;;;;6375626;22;11027;-72
2023/05/31 10:56:02;;;;;;;;;10.00;7.50;;;;;;;;6375295;22;10862;-72
2023/05/31 10:58:29;;;;;;;;;10.50;8.25;;;;;;;;6375826;22;10967;-71
2023/05/31 11:00:55;;;;;;;;;8.50;7.75;;;;;;;;6375405;22;10860;-72
2023/05/31 11:03:21;;;;;;;;;9.75;9.75;;;;;;;;6347090;22;10907;-72
2023/05/31 11:05:59;;;;;;;;;8.25;8.25;;;;;;;;6374612;22;11317;-71
2023/05/31 11:08:25;;;;;;;;;7.50;7.50;;;;;;;;6375586;22;11853;-70
2023/05/31 11:10:50;;;;;;;;;8.25;8.00;;;;;;;;6374892;22;11013;-71
2023/05/31 11:13:16;;;;;;;;;9.50;7.25;;;;;;;;6375886;22;8764;-72
2023/05/31 11:15:42;;;;;;;;;9.50;7.50;;;;;;;;6346774;22;8775;-71
2023/05/31 11:18:09;;;;;;;;;7.50;7.50;;;;;;;;6375459;22;8853;-69
2023/05/31 11:20:36;;;;;;;;;8.50;8.00;;;;;;;;6374666;22;11106;-69
2023/05/31 11:23:19;;;;;;;;;7.50;7.50;;;;;;;;6375964;22;10914;-69
2023/05/31 11:26:04;;;;;;;;;8.00;8.00;;;;;;;;6374452;22;10942;-70
2023/05/31 11:28:31;;;;;;;;;10.00;8.25;;;;;;;;6375022;22;10779;-70
2023/05/31 11:30:56;;;;;;;;;11.00;9.00;;;;;;;;6374759;22;11042;-72
2023/05/31 11:33:22;;;;;;;;;9.00;8.50;;;;;;;;6374911;22;11805;-72
2023/05/31 11:35:48;;;;;;;;;10.00;7.75;;;;;;;;6374970;22;8713;-69
2023/05/31 11:38:15;;;;;;;;;7.75;7.50;;;;;;;;6374934;22;10759;-70
2023/05/31 11:40:40;;;;;;;;;9.00;9.00;;;;;;;;6374710;22;8740;-71
2023/05/31 11:43:06;;;;;;;;;10.75;9.25;;;;;;;;6374720;22;10900;-71
2023/05/31 11:45:33;;;;;;;;;6.50;6.00;;;;;;;;6374671;22;8744;-73
2023/05/31 11:48:11;;;;;;;;;8.50;8.00;;;;;;;;6374310;22;10916;-78
2023/05/31 11:50:36;;;;;;;;;9.00;7.50;;;;;;;;6374913;22;11070;-73
2023/05/31 11:53:02;;;;;;;;;9.00;6.75;;;;;;;;6374934;22;11021;-73
2023/05/31 11:55:35;;;;;;;;;10.75;9.75;;;;;;;;6372724;22;9958;-72
2023/05/31 11:58:01;;;;;;;;;6.50;5.25;;;;;;;;6374369;22;10934;-73
2023/05/31 12:00:27;;;;;;;;;8.25;8.25;;;;;;;;6373777;22;11171;-73
2023/05/31 12:02:53;;;;;;;;;8.25;8.00;;;;;;;;6346029;22;11090;-72
2023/05/31 12:05:19;;;;;;;;;12.50;10.50;;;;;;;;6374570;22;8744;-73
2023/05/31 12:07:45;;;;;;;;;10.50;8.50;;;;;;;;6374912;22;11070;-75
2023/05/31 12:10:11;;;;;;;;;11.75;10.25;;;;;;;;6374074;22;9507;-73
2023/05/31 12:12:38;;;;;;;;;11.00;10.00;;;;;;;;6374456;22;8748;-73
2023/05/31 12:15:03;;;;;;;;;12.50;12.50;;;;;;;;6374898;22;8751;-74
2023/05/31 12:17:32;;;;;;;;;9.00;9.00;;;;;;;;6346076;22;11621;-73
2023/05/31 12:19:57;;;;;;;;;8.75;8.25;;;;;;;;6373927;22;8728;-73
2023/05/31 12:22:22;;;;;;;;;10.25;10.25;;;;;;;;6345131;22;11078;-73
2023/05/31 12:24:49;;;;;;;;;7.67;7.67;;;;;;;;6374511;22;8748;-79
2023/05/31 12:27:15;;;;;;;;;8.75;7.00;;;;;;;;6372970;22;8744;-72
2023/05/31 12:29:40;;;;;;;;;5.00;5.00;;;;;;;;6374565;22;10953;-74
2023/05/31 12:32:06;;;;;;;;;9.25;7.50;;;;;;;;6373462;22;10920;-73
2023/05/31 12:34:35;;;;;;;;;12.25;11.25;;;;;;;;6345940;22;8748;-73
2023/05/31 12:37:04;;;;;;;;;10.50;10.50;;;;;;;;6374097;22;8716;-75
2023/05/31 12:39:29;;;;;;;;;9.25;8.25;;;;;;;;6373321;22;11525;-73
2023/05/31 12:41:57;;;;;;;;;12.25;11.50;;;;;;;;6374314;22;10765;-73
2023/05/31 12:44:22;;;;;;;;;10.25;10.00;;;;;;;;6373570;22;8759;-73
2023/05/31 12:46:48;;;;;;;;;9.75;9.75;;;;;;;;6373938;22;11493;-72
2023/05/31 12:49:14;;;;;;;;;10.25;10.25;;;;;;;;6373851;22;8736;-74
2023/05/31 12:51:39;;;;;;;;;9.25;9.25;;;;;;;;6372848;22;11349;-73
2023/05/31 12:54:09;;;;;;;;;8.50;8.00;;;;;;;;6373540;22;8728;-72
2023/05/31 12:56:34;;;;;;;;;12.75;10.00;;;;;;;;6374757;22;8724;-74
2023/05/31 12:59:00;;;;;;;;;10.25;8.25;;;;;;;;6375211;22;10647;-74
2023/05/31 13:01:27;;;;;;;;;11.00;11.00;;;;;;;;6375702;22;8837;-73
2023/05/31 13:03:52;;;;;;;;;12.00;10.50;;;;;;;;6347151;22;8766;-74
2023/05/31 13:06:17;;;;;;;;;9.00;9.00;;;;;;;;6375264;22;10650;-72
2023/05/31 13:08:44;;;;;;;;;10.00;7.50;;;;;;;;6375628;22;9468;-73
2023/05/31 13:11:09;;;;;;;;;13.75;10.75;;;;;;;;6375277;22;9507;-73
2023/05/31 13:13:34;;;;;;;;;13.25;11.25;;;;;;;;6375377;22;10632;-72
2023/05/31 13:16:00;;;;;;;;;11.75;11.25;;;;;;;;6376080;22;8744;-73
2023/05/31 13:18:25;;;;;;;;;12.50;9.25;;;;;;;;6375344;22;8768;-73
2023/05/31 13:20:50;;;;;;;;;5.50;4.75;;;;;;;;6375041;22;8763;-73
2023/05/31 13:23:15;;;;;;;;;9.00;9.00;;;;;;;;6375582;22;8760;-73
2023/05/31 13:25:40;;;;;;;;;11.25;9.75;;;;;;;;6374871;22;9554;-73
2023/05/31 13:28:06;;;;;;;;;10.50;10.50;;;;;;;;6347072;22;8791;-73
2023/05/31 13:30:32;;;;;;;;;11.50;10.75;;;;;;;;6346884;22;8775;-71
2023/05/31 13:32:57;;;;;;;;;10.50;9.75;;;;;;;;6375494;22;8712;-71
2023/05/31 13:35:22;;;;;;;;;8.00;8.00;;;;;;;;6375167;22;10912;-72
2023/05/31 13:37:48;;;;;;;;;4.75;4.00;;;;;;;;6375959;22;8740;-71
2023/05/31 13:40:13;;;;;;;;;8.75;7.00;;;;;;;;6375499;22;8771;-73
2023/05/31 13:42:38;;;;;;;;;12.50;8.50;;;;;;;;6375122;22;9488;-77
2023/05/31 13:45:03;;;;;;;;;11.25;8.75;;;;;;;;6375636;22;8787;-72
2023/05/31 13:47:29;;;;;;;;;11.50;9.75;;;;;;;;6346880;22;9288;-72
2023/05/31 13:49:55;;;;;;;;;10.75;8.00;;;;;;;;6375703;22;8717;-71
2023/05/31 13:52:20;;;;;;;;;7.25;7.00;;;;;;;;6374916;22;10726;-72
2023/05/31 13:54:45;;;;;;;;;6.50;6.50;;;;;;;;6375710;22;8732;-73
2023/05/31 13:57:10;;;;;;;;;12.25;12.25;;;;;;;;6375110;22;8870;-72
2023/05/31 13:59:35;;;;;;;;;9.50;8.50;;;;;;;;6376040;22;8795;-72
2023/05/31 14:02:01;;;;;;;;;8.00;7.00;;;;;;;;6347110;22;8756;-73
2023/05/31 14:04:26;;;;;;;;;12.50;8.75;;;;;;;;6375692;22;8792;-72
2023/05/31 14:06:51;;;;;;;;;12.25;10.25;;;;;;;;6375930;22;8776;-72
2023/05/31 14:09:17;;;;;;;;;8.50;8.50;;;;;;;;6375246;22;9508;-73
2023/05/31 14:11:42;;;;;;;;;9.25;7.50;;;;;;;;6375132;22;8724;-73
2023/05/31 14:14:08;;;;;;;;;7.25;6.50;;;;;;;;6375989;22;8756;-72
2023/05/31 14:16:34;;;;;;;;;12.00;9.25;;;;;;;;6375444;22;9488;-72
2023/05/31 14:18:59;;;;;;;;;8.50;7.25;;;;;;;;6375224;22;8748;-73
2023/05/31 14:21:25;;;;;;;;;8.75;8.00;;;;;;;;6373255;22;10814;-72
2023/05/31 14:23:51;;;;;;;;;8.25;7.50;;;;;;;;6373473;22;8712;-72
2023/05/31 14:26:16;;;;;;;;;6.25;6.25;;;;;;;;6374915;22;11002;-71
2023/05/31 14:28:41;;;;;;;;;10.00;8.00;;;;;;;;6375380;22;8764;-73
2023/05/31 14:31:06;;;;;;;;;7.00;5.75;;;;;;;;6374579;22;8870;-73
2023/05/31 14:33:31;;;;;;;;;5.00;4.75;;;;;;;;6375097;22;8748;-72
2023/05/31 14:35:56;;;;;;;;;5.75;5.75;;;;;;;;6346310;22;9022;-72
2023/05/31 14:38:22;;;;;;;;;8.75;5.50;;;;;;;;6375159;22;8782;-73
2023/05/31 14:40:47;;;;;;;;;8.75;8.50;;;;;;;;6375277;22;8825;-72
2023/05/31 14:43:12;;;;;;;;;7.25;6.00;;;;;;;;6375024;22;8855;-72
2023/05/31 14:45:37;;;;;;;;;7.50;7.50;;;;;;;;6374167;22;8772;-72
2023/05/31 14:48:02;;;;;;;;;7.75;7.75;;;;;;;;6345578;22;8756;-72
2023/05/31 14:50:28;;;;;;;;;7.00;7.00;;;;;;;;6374774;22;8740;-72
2023/05/31 14:52:53;;;;;;;;;10.00;7.50;;;;;;;;6374313;22;8755;-71
2023/05/31 14:55:18;;;;;;;;;6.25;4.75;;;;;;;;6375094;22;8782;-75
2023/05/31 14:57:43;;;;;;;;;9.00;6.50;;;;;;;;6346897;22;8821;-71
2023/05/31 15:00:09;;;;;;;;;5.75;5.75;;;;;;;;6375035;22;8954;-72
2023/05/31 15:02:34;;;;;;;;;6.50;6.50;;;;;;;;6374613;22;8786;-71
2023/05/31 15:04:59;;;;;;;;;7.75;7.75;;;;;;;;6373687;22;8765;-68
2023/05/31 15:07:25;;;;;;;;;8.50;8.25;;;;;;;;6374113;22;8775;-69
2023/05/31 15:09:50;;;;;;;;;5.75;5.25;;;;;;;;6374297;22;8828;-69
2023/05/31 15:12:15;;;;;;;;;6.75;6.00;;;;;;;;6346443;22;8855;-69
2023/05/31 15:14:40;;;;;;;;;6.00;6.00;;;;;;;;6374806;22;8786;-71
2023/05/31 15:17:05;;;;;;;;;3.75;3.75;;;;;;;;6375098;22;8756;-70
2023/05/31 15:19:30;;;;;;;;;7.25;6.50;;;;;;;;6374725;22;8747;-72
2023/05/31 15:21:56;;;;;;;;;9.00;7.50;;;;;;;;6374374;22;8861;-70
2023/05/31 15:24:21;;;;;;;;;7.00;6.25;;;;;;;;6375295;22;8756;-70
2023/05/31 15:26:46;;;;;;;;;6.00;5.75;;;;;;;;6374870;22;8772;-70
2023/05/31 15:29:11;;;;;;;;;9.75;5.50;;;;;;;;6374424;22;8732;-70
2023/05/31 15:31:37;;;;;;;;;5.00;3.50;;;;;;;;6346268;22;8825;-71
2023/05/31 15:34:02;;;;;;;;;6.50;5.50;;;;;;;;6374592;22;8759;-71
2023/05/31 15:36:28;;;;;;;;;8.75;6.25;;;;;;;;6375291;22;10130;-69
2023/05/31 15:38:58;;;;;;;;;4.25;4.00;;;;;;;;6374767;22;8728;-70
2023/05/31 15:41:23;;;;;;;;;5.75;5.75;;;;;;;;6375003;22;8736;-75
2023/05/31 15:43:48;;;;;;;;;6.50;5.25;;;;;;;;6375057;22;10701;-72
2023/05/31 15:46:13;;;;;;;;;4.00;4.00;;;;;;;;6374759;22;9520;-72
2023/05/31 15:48:39;;;;;;;;;9.75;5.50;;;;;;;;6374520;22;8744;-72
2023/05/31 15:51:04;;;;;;;;;5.25;5.25;;;;;;;;6375200;22;8828;-72
2023/05/31 15:53:29;;;;;;;;;4.00;4.00;;;;;;;;6375345;22;8744;-72
2023/05/31 15:55:54;;;;;;;;;5.50;3.00;;;;;;;;6375006;22;8854;-72
2023/05/31 15:58:20;;;;;;;;;4.75;4.50;;;;;;;;6374752;22;8744;-71
2023/05/31 16:00:45;;;;;;;;;5.25;5.25;;;;;;;;6374799;22;8755;-72
2023/05/31 16:03:10;;;;;;;;;3.75;3.75;;;;;;;;6375269;22;8755;-72
2023/05/31 16:05:36;;;;;;;;;6.00;6.00;;;;;;;;6374776;22;8867;-72
2023/05/31 16:08:03;;;;;;;;;3.75;3.75;;;;;;;;6373213;22;8857;-72
2023/05/31 16:10:30;;;;;;;;;4.00;3.25;;;;;;;;6374583;22;8701;-72
2023/05/31 16:12:55;;;;;;;;;2.50;2.50;;;;;;;;6374943;22;10615;-73
2023/05/31 16:15:20;;;;;;;;;8.00;5.00;;;;;;;;6374334;22;10687;-72
2023/05/31 16:17:45;;;;;;;;;4.25;3.00;;;;;;;;6374410;22;8751;-72
2023/05/31 16:20:11;;;;;;;;;4.50;4.50;;;;;;;;6374268;22;8791;-73
2023/05/31 16:22:36;;;;;;;;;6.00;4.75;;;;;;;;6373681;22;8780;-73
2023/05/31 16:25:01;;;;;;;;;3.00;3.00;;;;;;;;6346241;22;8796;-73
2023/05/31 16:27:26;;;;;;;;;5.25;4.25;;;;;;;;6375100;22;8775;-73
2023/05/31 16:29:52;;;;;;;;;5.75;4.25;;;;;;;;6371814;22;9536;-74
2023/05/31 16:32:17;;;;;;;;;5.25;5.25;;;;;;;;6376115;22;8791;-77
2023/05/31 16:34:42;;;;;;;;;4.00;3.75;;;;;;;;6376065;22;8809;-71
2023/05/31 16:37:07;;;;;;;;;5.75;3.50;;;;;;;;6375854;22;8751;-73
2023/05/31 16:39:32;;;;;;;;;5.00;5.00;;;;;;;;6375898;22;8760;-71
2023/05/31 16:41:58;;;;;;;;;3.50;3.25;;;;;;;;6375827;22;8779;-70
2023/05/31 16:44:23;;;;;;;;;3.75;3.75;;;;;;;;6375588;22;8744;-71
2023/05/31 16:46:49;;;;;;;;;4.00;4.00;;;;;;;;6376159;22;8771;-71
2023/05/31 16:49:14;;;;;;;;;3.50;3.50;;;;;;;;6375989;22;8835;-71
2023/05/31 16:51:40;;;;;;;;;5.75;5.00;;;;;;;;6375619;22;8786;-72
2023/05/31 16:54:05;;;;;;;;;4.00;2.75;;;;;;;;6375205;22;8752;-72
2023/05/31 16:56:30;;;;;;;;;4.75;4.75;;;;;;;;6376417;22;8853;-72
2023/05/31 16:58:55;;;;;;;;;6.50;3.75;;;;;;;;6347053;22;8830;-71
2023/05/31 17:01:21;;;;;;;;;4.75;3.50;;;;;;;;6375888;22;8763;-71
2023/05/31 17:03:47;;;;;;;;;5.75;3.75;;;;;;;;6375333;22;8747;-73
2023/05/31 17:06:13;;;;;;;;;7.00;7.00;;;;;;;;6375905;22;8736;-72
2023/05/31 17:08:38;;;;;;;;;11.25;8.25;;;;;;;;6375838;22;10878;-73
2023/05/31 17:11:05;;;;;;;;;3.50;3.50;;;;;;;;6375433;22;8766;-72
2023/05/31 17:13:30;;;;;;;;;6.25;6.25;;;;;;;;6375776;22;8728;-73
2023/05/31 17:15:55;;;;;;;;;5.50;5.50;;;;;;;;6375485;22;10898;-73
2023/05/31 17:18:20;;;;;;;;;6.00;5.25;;;;;;;;6376077;22;8794;-73
2023/05/31 17:20:45;;;;;;;;;4.75;3.75;;;;;;;;6374979;22;8791;-73
2023/05/31 17:23:11;;;;;;;;;4.75;4.00;;;;;;;;6376553;22;8904;-72
2023/05/31 17:25:36;;;;;;;;;7.75;6.75;;;;;;;;6374423;22;8760;-71
2023/05/31 17:28:01;;;;;;;;;4.75;4.75;;;;;;;;6375526;22;8735;-71
2023/05/31 17:30:27;;;;;;;;;7.75;6.00;;;;;;;;6375476;22;8776;-78
2023/05/31 17:32:53;;;;;;;;;7.75;4.00;;;;;;;;6375612;22;8732;-72
2023/05/31 17:35:18;;;;;;;;;6.00;6.00;;;;;;;;6376013;22;8744;-72
2023/05/31 17:37:43;;;;;;;;;8.50;7.00;;;;;;;;6375669;22;8732;-72
2023/05/31 17:40:08;;;;;;;;;9.75;5.50;;;;;;;;6375748;22;8781;-70
2023/05/31 17:42:34;;;;;;;;;8.00;5.00;;;;;;;;6374816;22;8824;-69
2023/05/31 17:44:59;;;;;;;;;4.25;3.50;;;;;;;;6376162;22;8736;-69
2023/05/31 17:47:24;;;;;;;;;6.00;6.00;;;;;;;;6376067;22;8885;-69
2023/05/31 17:49:49;;;;;;;;;5.00;5.00;;;;;;;;6347578;22;8787;-69
2023/05/31 17:52:15;;;;;;;;;3.75;3.25;;;;;;;;6375275;22;8832;-69
2023/05/31 17:54:41;;;;;;;;;4.25;4.25;;;;;;;;6347737;22;8816;-69
2023/05/31 17:57:06;;;;;;;;;4.00;4.00;;;;;;;;6375881;22;8827;-72
2023/05/31 17:59:32;;;;;;;;;8.75;6.50;;;;;;;;6375330;22;11320;-69
2023/05/31 18:01:57;;;;;;;;;7.00;5.00;;;;;;;;6375697;22;8732;-67
2023/05/31 18:04:22;;;;;;;;;7.00;5.75;;;;;;;;6375635;22;8844;-68
2023/05/31 18:06:48;;;;;;;;;5.00;5.00;;;;;;;;6376003;22;8866;-69
2023/05/31 18:09:13;;;;;;;;;8.25;7.00;;;;;;;;6375835;22;8727;-68
2023/05/31 18:11:38;;;;;;;;;5.25;5.25;;;;;;;;6375738;22;8842;-70
2023/05/31 18:14:04;;;;;;;;;5.25;5.25;;;;;;;;6376208;22;8740;-67
2023/05/31 18:16:30;;;;;;;;;3.25;3.25;;;;;;;;6375904;22;8834;-67
2023/05/31 18:18:55;;;;;;;;;8.00;8.00;;;;;;;;6376129;22;8716;-71
2023/05/31 18:21:21;;;;;;;;;7.50;7.25;;;;;;;;6374600;22;10811;-68
2023/05/31 18:23:46;;;;;;;;;6.50;6.50;;;;;;;;6375953;22;8744;-72
2023/05/31 18:26:11;;;;;;;;;7.00;4.75;;;;;;;;6375535;22;8778;-72
2023/05/31 18:28:38;;;;;;;;;7.00;5.75;;;;;;;;6375532;22;9440;-72
2023/05/31 18:31:04;;;;;;;;;7.75;6.75;;;;;;;;6373493;22;8716;-70
2023/05/31 18:33:29;;;;;;;;;5.00;4.25;;;;;;;;6374646;22;10793;-71
2023/05/31 18:35:54;;;;;;;;;9.00;6.25;;;;;;;;6375046;22;8771;-72
2023/05/31 18:38:22;;;;;;;;;6.75;6.00;;;;;;;;6373728;22;9538;-73
2023/05/31 18:40:47;;;;;;;;;5.00;5.00;;;;;;;;6374819;22;8720;-70
2023/05/31 18:43:12;;;;;;;;;9.50;6.50;;;;;;;;6375365;22;10884;-72
2023/05/31 18:45:38;;;;;;;;;9.00;8.50;;;;;;;;6375402;22;8775;-74
2023/05/31 18:48:06;;;;;;;;;4.25;4.25;;;;;;;;6375929;22;8778;-73
2023/05/31 18:50:31;;;;;;;;;6.00;5.00;;;;;;;;6375499;22;8712;-74
2023/05/31 18:52:56;;;;;;;;;6.75;6.00;;;;;;;;6374412;22;11488;-70
2023/05/31 18:55:21;;;;;;;;;6.75;4.25;;;;;;;;6375467;22;9476;-75
2023/05/31 18:57:46;;;;;;;;;6.00;5.25;;;;;;;;6375881;22;8760;-77
2023/05/31 19:00:12;;;;;;;;;7.00;7.00;;;;;;;;6375807;22;8732;-77
2023/05/31 19:02:38;;;;;;;;;6.25;4.75;;;;;;;;6376791;22;8744;-75
2023/05/31 19:05:04;;;;;;;;;9.25;5.50;;;;;;;;6347691;22;8760;-76
2023/05/31 19:07:30;;;;;;;;;6.00;6.00;;;;;;;;6375245;22;8755;-75
2023/05/31 19:09:55;;;;;;;;;8.75;8.75;;;;;;;;6375615;22;10717;-74
2023/05/31 19:12:20;;;;;;;;;4.25;3.00;;;;;;;;6375619;22;8724;-79
2023/05/31 19:14:46;;;;;;;;;7.00;7.00;;;;;;;;6375770;22;8756;-76
2023/05/31 19:17:11;;;;;;;;;6.75;5.00;;;;;;;;6375440;22;8732;-69
2023/05/31 19:19:36;;;;;;;;;7.25;7.25;;;;;;;;6375771;22;8840;-69
2023/05/31 19:22:02;;;;;;;;;9.00;8.75;;;;;;;;6374099;22;8767;-69
2023/05/31 19:24:27;;;;;;;;;7.75;7.75;;;;;;;;6375417;22;8771;-70
2023/05/31 19:26:53;;;;;;;;;7.25;7.00;;;;;;;;6374489;22;8747;-70
2023/05/31 19:29:18;;;;;;;;;5.25;4.50;;;;;;;;6375157;22;8716;-69
2023/05/31 19:31:45;;;;;;;;;6.75;5.75;;;;;;;;6375379;22;12170;-70
2023/05/31 19:34:10;;;;;;;;;6.00;6.00;;;;;;;;6375400;22;8724;-70
2023/05/31 19:36:36;;;;;;;;;7.00;5.75;;;;;;;;6375310;22;11494;-69
2023/05/31 19:39:02;;;;;;;;;9.50;7.25;;;;;;;;6375035;22;8728;-68
2023/05/31 19:41:28;;;;;;;;;7.00;7.00;;;;;;;;6374766;22;8774;-69
2023/05/31 19:43:53;;;;;;;;;8.75;7.75;;;;;;;;6375519;22;10786;-69
2023/05/31 19:46:19;;;;;;;;;8.00;7.00;;;;;;;;6375176;22;8823;-69
2023/05/31 19:48:44;;;;;;;;;8.00;5.50;;;;;;;;6375423;22;9499;-68
2023/05/31 19:51:10;;;;;;;;;9.00;7.75;;;;;;;;6374524;22;11424;-71
2023/05/31 19:53:35;;;;;;;;;6.00;6.00;;;;;;;;6375166;22;8890;-69
2023/05/31 19:56:01;;;;;;;;;8.25;6.75;;;;;;;;6375199;22;8736;-69